sensor_id;sensor_type;location;lat;lon;timestamp;P1;durP1;ratioP1;P2;durP2;ratioP2
8636;SDS011;4356;49.068;8.658;2022-10-16T00:01:05;2.67;;;2.47;;
8636;SDS011;4356;49.068;8.658;2022-10-16T00:03:32;3.00;;;2.70;;
8636;SDS011;4356;49.068;8.658;2022-10-16T00:05:59;4.27;;;2.20;;
8636;SDS011;4356;49.068;8.658;2022-10-16T00:08:25;2.80;;;1.60;;
8636;SDS011;4356;49.068;8.658;2022-10-16T00:10:51;1.47;;;1.40;;
8636;SDS011;4356;49.068;8.658;2022-10-16T00:13:16;1.93;;;1.20;;
8636;SDS011;4356;49.068;8.658;2022-10-16T00:15:43;2.30;;;1.20;;
8636;SDS011;4356;49.068;8.658;2022-10-16T00:18:09;1.87;;;1.77;;
8636;SDS011;4356;49.068;8.658;2022-10-16T00:20:35;2.47;;;1.33;;
8636;SDS011;4356;49.068;8.658;2022-10-16T00:23:02;1.10;;;1.10;;
8636;SDS011;4356;49.068;8.658;2022-10-16T00:25:28;1.27;;;1.27;;
8636;SDS011;4356;49.068;8.658;2022-10-16T00:27:54;3.23;;;1.77;;
8636;SDS011;4356;49.068;8.658;2022-10-16T00:30:20;1.30;;;1.30;;
8636;SDS011;4356;49.068;8.658;2022-10-16T00:32:45;1.00;;;1.00;;
8636;SDS011;4356;49.068;8.658;2022-10-16T00:35:11;2.93;;;1.00;;
8636;SDS011;4356;49.068;8.658;2022-10-16T00:37:36;1.10;;;1.10;;
8636;SDS011;4356;49.068;8.658;2022-10-16T00:40:02;0.90;;;0.90;;
8636;SDS011;4356;49.068;8.658;2022-10-16T00:42:28;2.63;;;1.50;;
8636;SDS011;4356;49.068;8.658;2022-10-16T00:44:55;1.37;;;1.27;;
8636;SDS011;4356;49.068;8.658;2022-10-16T00:47:24;2.07;;;1.10;;
8636;SDS011;4356;49.068;8.658;2022-10-16T00:49:51;1.90;;;1.23;;
8636;SDS011;4356;49.068;8.658;2022-10-16T00:52:21;4.27;;;1.30;;
8636;SDS011;4356;49.068;8.658;2022-10-16T00:54:47;1.10;;;1.10;;
8636;SDS011;4356;49.068;8.658;2022-10-16T00:57:15;1.73;;;1.10;;
8636;SDS011;4356;49.068;8.658;2022-10-16T00:59:41;2.37;;;1.17;;
8636;SDS011;4356;49.068;8.658;2022-10-16T01:02:09;1.30;;;1.20;;
8636;SDS011;4356;49.068;8.658;2022-10-16T01:04:39;1.53;;;1.43;;
8636;SDS011;4356;49.068;8.658;2022-10-16T01:15:37;1.17;;;0.90;;
8636;SDS011;4356;49.068;8.658;2022-10-16T01:20:54;2.73;;;1.00;;
8636;SDS011;4356;49.068;8.658;2022-10-16T01:29:09;1.17;;;0.90;;
8636;SDS011;4356;49.068;8.658;2022-10-16T01:31:43;2.97;;;0.90;;
8636;SDS011;4356;49.068;8.658;2022-10-16T01:34:15;2.40;;;0.80;;
8636;SDS011;4356;49.068;8.658;2022-10-16T01:36:49;2.43;;;0.77;;
8636;SDS011;4356;49.068;8.658;2022-10-16T01:39:20;1.90;;;0.87;;
8636;SDS011;4356;49.068;8.658;2022-10-16T01:41:52;2.93;;;0.67;;
8636;SDS011;4356;49.068;8.658;2022-10-16T01:44:24;1.00;;;1.00;;
8636;SDS011;4356;49.068;8.658;2022-10-16T01:46:54;1.53;;;1.00;;
8636;SDS011;4356;49.068;8.658;2022-10-16T01:49:21;0.53;;;0.53;;
8636;SDS011;4356;49.068;8.658;2022-10-16T01:51:52;1.33;;;0.80;;
8636;SDS011;4356;49.068;8.658;2022-10-16T01:54:20;3.63;;;0.80;;
8636;SDS011;4356;49.068;8.658;2022-10-16T01:56:50;1.53;;;0.70;;
8636;SDS011;4356;49.068;8.658;2022-10-16T01:59:18;0.80;;;0.80;;
8636;SDS011;4356;49.068;8.658;2022-10-16T02:01:50;2.20;;;0.80;;
8636;SDS011;4356;49.068;8.658;2022-10-16T02:06:55;2.73;;;0.87;;
8636;SDS011;4356;49.068;8.658;2022-10-16T02:09:21;0.73;;;0.73;;
8636;SDS011;4356;49.068;8.658;2022-10-16T02:11:47;3.47;;;1.00;;
8636;SDS011;4356;49.068;8.658;2022-10-16T02:14:15;2.83;;;1.20;;
8636;SDS011;4356;49.068;8.658;2022-10-16T02:16:45;1.10;;;1.10;;
8636;SDS011;4356;49.068;8.658;2022-10-16T02:19:14;1.60;;;0.83;;
8636;SDS011;4356;49.068;8.658;2022-10-16T02:21:51;0.80;;;0.80;;
8636;SDS011;4356;49.068;8.658;2022-10-16T02:26:52;1.17;;;1.00;;
8636;SDS011;4356;49.068;8.658;2022-10-16T02:29:26;1.23;;;0.90;;
8636;SDS011;4356;49.068;8.658;2022-10-16T02:31:54;2.40;;;0.90;;
8636;SDS011;4356;49.068;8.658;2022-10-16T02:34:24;0.80;;;0.80;;
8636;SDS011;4356;49.068;8.658;2022-10-16T02:36:51;0.70;;;0.70;;
8636;SDS011;4356;49.068;8.658;2022-10-16T02:39:18;0.70;;;0.70;;
8636;SDS011;4356;49.068;8.658;2022-10-16T02:41:45;2.87;;;0.77;;
8636;SDS011;4356;49.068;8.658;2022-10-16T02:44:11;0.60;;;0.60;;
8636;SDS011;4356;49.068;8.658;2022-10-16T02:46:36;5.80;;;0.77;;
8636;SDS011;4356;49.068;8.658;2022-10-16T02:49:02;1.17;;;0.93;;
8636;SDS011;4356;49.068;8.658;2022-10-16T02:51:27;2.53;;;0.73;;
8636;SDS011;4356;49.068;8.658;2022-10-16T02:53:53;0.83;;;0.70;;
8636;SDS011;4356;49.068;8.658;2022-10-16T02:56:18;3.07;;;0.83;;
8636;SDS011;4356;49.068;8.658;2022-10-16T02:58:44;1.73;;;0.87;;
8636;SDS011;4356;49.068;8.658;2022-10-16T03:01:09;3.70;;;0.60;;
8636;SDS011;4356;49.068;8.658;2022-10-16T03:03:37;1.30;;;1.20;;
8636;SDS011;4356;49.068;8.658;2022-10-16T03:06:04;4.37;;;1.30;;
8636;SDS011;4356;49.068;8.658;2022-10-16T03:08:30;0.80;;;0.80;;
8636;SDS011;4356;49.068;8.658;2022-10-16T03:10:56;1.80;;;0.77;;
8636;SDS011;4356;49.068;8.658;2022-10-16T03:13:21;2.20;;;0.80;;
8636;SDS011;4356;49.068;8.658;2022-10-16T03:15:47;1.47;;;0.90;;
8636;SDS011;4356;49.068;8.658;2022-10-16T03:18:13;2.43;;;0.80;;
8636;SDS011;4356;49.068;8.658;2022-10-16T03:20:38;0.90;;;0.90;;
8636;SDS011;4356;49.068;8.658;2022-10-16T03:23:04;5.10;;;0.97;;
8636;SDS011;4356;49.068;8.658;2022-10-16T03:25:29;2.10;;;1.00;;
8636;SDS011;4356;49.068;8.658;2022-10-16T03:27:55;0.97;;;0.97;;
8636;SDS011;4356;49.068;8.658;2022-10-16T03:30:20;2.23;;;0.90;;
8636;SDS011;4356;49.068;8.658;2022-10-16T03:32:46;1.37;;;0.90;;
8636;SDS011;4356;49.068;8.658;2022-10-16T03:35:12;2.20;;;0.53;;
8636;SDS011;4356;49.068;8.658;2022-10-16T03:37:38;2.10;;;0.90;;
8636;SDS011;4356;49.068;8.658;2022-10-16T03:40:04;2.03;;;0.87;;
8636;SDS011;4356;49.068;8.658;2022-10-16T03:42:30;2.33;;;0.73;;
8636;SDS011;4356;49.068;8.658;2022-10-16T03:44:56;0.60;;;0.60;;
8636;SDS011;4356;49.068;8.658;2022-10-16T03:47:21;1.97;;;0.90;;
8636;SDS011;4356;49.068;8.658;2022-10-16T03:49:48;0.90;;;0.90;;
8636;SDS011;4356;49.068;8.658;2022-10-16T03:52:14;4.77;;;0.87;;
8636;SDS011;4356;49.068;8.658;2022-10-16T03:54:40;1.10;;;0.80;;
8636;SDS011;4356;49.068;8.658;2022-10-16T03:57:06;0.93;;;0.80;;
8636;SDS011;4356;49.068;8.658;2022-10-16T03:59:31;1.03;;;0.70;;
8636;SDS011;4356;49.068;8.658;2022-10-16T04:01:57;3.80;;;0.83;;
8636;SDS011;4356;49.068;8.658;2022-10-16T04:04:22;1.93;;;0.90;;
8636;SDS011;4356;49.068;8.658;2022-10-16T04:06:49;1.77;;;0.80;;
8636;SDS011;4356;49.068;8.658;2022-10-16T04:09:14;2.23;;;0.70;;
8636;SDS011;4356;49.068;8.658;2022-10-16T04:11:40;0.87;;;0.60;;
8636;SDS011;4356;49.068;8.658;2022-10-16T04:14:05;1.13;;;1.00;;
8636;SDS011;4356;49.068;8.658;2022-10-16T04:16:31;2.67;;;1.03;;
8636;SDS011;4356;49.068;8.658;2022-10-16T04:18:56;0.70;;;0.70;;
8636;SDS011;4356;49.068;8.658;2022-10-16T04:21:22;1.60;;;0.70;;
8636;SDS011;4356;49.068;8.658;2022-10-16T04:23:48;2.07;;;0.63;;
8636;SDS011;4356;49.068;8.658;2022-10-16T04:26:14;2.80;;;0.90;;
8636;SDS011;4356;49.068;8.658;2022-10-16T04:28:40;1.50;;;0.70;;
8636;SDS011;4356;49.068;8.658;2022-10-16T04:31:05;3.27;;;0.90;;
8636;SDS011;4356;49.068;8.658;2022-10-16T04:33:32;0.93;;;0.93;;
8636;SDS011;4356;49.068;8.658;2022-10-16T04:36:01;0.83;;;0.80;;
8636;SDS011;4356;49.068;8.658;2022-10-16T04:38:28;4.23;;;0.80;;
8636;SDS011;4356;49.068;8.658;2022-10-16T04:40:54;1.93;;;0.80;;
8636;SDS011;4356;49.068;8.658;2022-10-16T04:43:19;1.00;;;0.70;;
8636;SDS011;4356;49.068;8.658;2022-10-16T04:45:46;2.03;;;0.80;;
8636;SDS011;4356;49.068;8.658;2022-10-16T04:48:11;3.20;;;0.67;;
8636;SDS011;4356;49.068;8.658;2022-10-16T04:50:37;0.73;;;0.70;;
8636;SDS011;4356;49.068;8.658;2022-10-16T04:53:03;1.90;;;0.97;;
8636;SDS011;4356;49.068;8.658;2022-10-16T04:55:29;1.20;;;1.10;;
8636;SDS011;4356;49.068;8.658;2022-10-16T04:57:54;1.27;;;0.90;;
8636;SDS011;4356;49.068;8.658;2022-10-16T05:00:20;4.43;;;0.80;;
8636;SDS011;4356;49.068;8.658;2022-10-16T05:02:45;2.90;;;1.20;;
8636;SDS011;4356;49.068;8.658;2022-10-16T05:05:11;0.83;;;0.83;;
8636;SDS011;4356;49.068;8.658;2022-10-16T05:07:37;1.00;;;1.00;;
8636;SDS011;4356;49.068;8.658;2022-10-16T05:10:02;0.80;;;0.80;;
8636;SDS011;4356;49.068;8.658;2022-10-16T05:12:28;3.43;;;1.30;;
8636;SDS011;4356;49.068;8.658;2022-10-16T05:14:54;1.23;;;1.17;;
8636;SDS011;4356;49.068;8.658;2022-10-16T05:17:23;6.37;;;1.10;;
8636;SDS011;4356;49.068;8.658;2022-10-16T05:19:50;2.17;;;1.37;;
8636;SDS011;4356;49.068;8.658;2022-10-16T05:22:15;1.60;;;1.13;;
8636;SDS011;4356;49.068;8.658;2022-10-16T05:24:41;2.60;;;1.30;;
8636;SDS011;4356;49.068;8.658;2022-10-16T05:27:06;5.90;;;1.77;;
8636;SDS011;4356;49.068;8.658;2022-10-16T05:29:32;2.60;;;0.97;;
8636;SDS011;4356;49.068;8.658;2022-10-16T05:31:58;1.47;;;1.10;;
8636;SDS011;4356;49.068;8.658;2022-10-16T05:34:23;1.50;;;1.37;;
8636;SDS011;4356;49.068;8.658;2022-10-16T05:36:49;1.53;;;1.43;;
8636;SDS011;4356;49.068;8.658;2022-10-16T05:39:15;2.87;;;1.93;;
8636;SDS011;4356;49.068;8.658;2022-10-16T05:41:42;1.43;;;1.33;;
8636;SDS011;4356;49.068;8.658;2022-10-16T05:44:07;1.17;;;1.07;;
8636;SDS011;4356;49.068;8.658;2022-10-16T05:46:33;3.30;;;1.27;;
8636;SDS011;4356;49.068;8.658;2022-10-16T05:48:59;3.43;;;1.30;;
8636;SDS011;4356;49.068;8.658;2022-10-16T05:51:24;3.70;;;1.37;;
8636;SDS011;4356;49.068;8.658;2022-10-16T05:53:50;4.43;;;1.40;;
8636;SDS011;4356;49.068;8.658;2022-10-16T05:56:17;2.30;;;1.20;;
8636;SDS011;4356;49.068;8.658;2022-10-16T05:58:43;1.10;;;1.10;;
8636;SDS011;4356;49.068;8.658;2022-10-16T06:01:16;0.73;;;0.73;;
8636;SDS011;4356;49.068;8.658;2022-10-16T06:03:43;1.17;;;0.97;;
8636;SDS011;4356;49.068;8.658;2022-10-16T06:06:10;3.80;;;1.13;;
8636;SDS011;4356;49.068;8.658;2022-10-16T06:08:37;3.37;;;1.17;;
8636;SDS011;4356;49.068;8.658;2022-10-16T06:11:04;2.47;;;1.50;;
8636;SDS011;4356;49.068;8.658;2022-10-16T06:13:32;4.10;;;1.27;;
8636;SDS011;4356;49.068;8.658;2022-10-16T06:15:58;1.20;;;1.10;;
8636;SDS011;4356;49.068;8.658;2022-10-16T06:18:25;1.20;;;1.03;;
8636;SDS011;4356;49.068;8.658;2022-10-16T06:20:52;1.07;;;1.07;;
8636;SDS011;4356;49.068;8.658;2022-10-16T06:23:18;2.60;;;1.30;;
8636;SDS011;4356;49.068;8.658;2022-10-16T06:25:43;1.67;;;1.40;;
8636;SDS011;4356;49.068;8.658;2022-10-16T06:28:09;0.93;;;0.80;;
8636;SDS011;4356;49.068;8.658;2022-10-16T06:30:34;1.40;;;1.37;;
8636;SDS011;4356;49.068;8.658;2022-10-16T06:33:00;1.40;;;1.30;;
8636;SDS011;4356;49.068;8.658;2022-10-16T06:35:25;3.80;;;1.40;;
8636;SDS011;4356;49.068;8.658;2022-10-16T06:37:52;1.60;;;1.50;;
8636;SDS011;4356;49.068;8.658;2022-10-16T06:40:18;3.70;;;1.90;;
8636;SDS011;4356;49.068;8.658;2022-10-16T06:42:44;2.50;;;1.43;;
8636;SDS011;4356;49.068;8.658;2022-10-16T06:45:10;6.63;;;1.80;;
8636;SDS011;4356;49.068;8.658;2022-10-16T06:47:35;4.13;;;1.53;;
8636;SDS011;4356;49.068;8.658;2022-10-16T06:50:01;1.13;;;1.07;;
8636;SDS011;4356;49.068;8.658;2022-10-16T06:52:29;1.47;;;1.37;;
8636;SDS011;4356;49.068;8.658;2022-10-16T06:54:55;1.40;;;1.30;;
8636;SDS011;4356;49.068;8.658;2022-10-16T06:57:20;4.03;;;1.40;;
8636;SDS011;4356;49.068;8.658;2022-10-16T06:59:46;3.93;;;1.67;;
8636;SDS011;4356;49.068;8.658;2022-10-16T07:02:12;1.63;;;1.53;;
8636;SDS011;4356;49.068;8.658;2022-10-16T07:04:37;2.40;;;1.30;;
8636;SDS011;4356;49.068;8.658;2022-10-16T07:07:03;1.70;;;1.60;;
8636;SDS011;4356;49.068;8.658;2022-10-16T07:09:28;2.07;;;1.57;;
8636;SDS011;4356;49.068;8.658;2022-10-16T07:11:54;2.50;;;1.50;;
8636;SDS011;4356;49.068;8.658;2022-10-16T07:14:20;1.53;;;1.53;;
8636;SDS011;4356;49.068;8.658;2022-10-16T07:16:46;3.43;;;1.47;;
8636;SDS011;4356;49.068;8.658;2022-10-16T07:19:14;1.70;;;1.57;;
8636;SDS011;4356;49.068;8.658;2022-10-16T07:21:42;3.70;;;1.63;;
8636;SDS011;4356;49.068;8.658;2022-10-16T07:24:12;7.87;;;2.57;;
8636;SDS011;4356;49.068;8.658;2022-10-16T07:26:40;1.70;;;1.57;;
8636;SDS011;4356;49.068;8.658;2022-10-16T07:29:11;8.83;;;1.73;;
8636;SDS011;4356;49.068;8.658;2022-10-16T07:31:42;3.90;;;1.37;;
8636;SDS011;4356;49.068;8.658;2022-10-16T07:34:09;3.60;;;1.50;;
8636;SDS011;4356;49.068;8.658;2022-10-16T07:36:35;1.17;;;1.17;;
8636;SDS011;4356;49.068;8.658;2022-10-16T07:39:01;3.90;;;1.43;;
8636;SDS011;4356;49.068;8.658;2022-10-16T07:41:27;3.03;;;1.03;;
8636;SDS011;4356;49.068;8.658;2022-10-16T07:43:53;1.83;;;1.60;;
8636;SDS011;4356;49.068;8.658;2022-10-16T07:46:20;1.27;;;1.27;;
8636;SDS011;4356;49.068;8.658;2022-10-16T07:48:47;3.20;;;1.33;;
8636;SDS011;4356;49.068;8.658;2022-10-16T07:51:14;2.67;;;1.20;;
8636;SDS011;4356;49.068;8.658;2022-10-16T07:53:42;1.47;;;1.27;;
8636;SDS011;4356;49.068;8.658;2022-10-16T07:56:08;2.00;;;1.10;;
8636;SDS011;4356;49.068;8.658;2022-10-16T07:58:34;1.10;;;1.10;;
8636;SDS011;4356;49.068;8.658;2022-10-16T08:01:04;3.63;;;1.77;;
8636;SDS011;4356;49.068;8.658;2022-10-16T08:03:31;2.27;;;1.20;;
8636;SDS011;4356;49.068;8.658;2022-10-16T08:05:57;4.87;;;1.00;;
8636;SDS011;4356;49.068;8.658;2022-10-16T08:08:23;1.73;;;1.30;;
8636;SDS011;4356;49.068;8.658;2022-10-16T08:10:48;1.40;;;1.30;;
8636;SDS011;4356;49.068;8.658;2022-10-16T08:13:14;4.33;;;1.20;;
8636;SDS011;4356;49.068;8.658;2022-10-16T08:15:41;2.53;;;1.27;;
8636;SDS011;4356;49.068;8.658;2022-10-16T08:18:08;2.73;;;1.17;;
8636;SDS011;4356;49.068;8.658;2022-10-16T08:20:35;1.50;;;1.30;;
8636;SDS011;4356;49.068;8.658;2022-10-16T08:23:01;2.67;;;1.40;;
8636;SDS011;4356;49.068;8.658;2022-10-16T08:25:27;4.17;;;1.27;;
8636;SDS011;4356;49.068;8.658;2022-10-16T08:27:52;1.47;;;1.40;;
8636;SDS011;4356;49.068;8.658;2022-10-16T08:30:19;3.63;;;1.27;;
8636;SDS011;4356;49.068;8.658;2022-10-16T08:32:46;1.90;;;1.30;;
8636;SDS011;4356;49.068;8.658;2022-10-16T08:35:12;2.67;;;1.47;;
8636;SDS011;4356;49.068;8.658;2022-10-16T08:37:38;0.93;;;0.93;;
8636;SDS011;4356;49.068;8.658;2022-10-16T08:40:05;1.73;;;1.23;;
8636;SDS011;4356;49.068;8.658;2022-10-16T08:48:00;1.97;;;0.90;;
8636;SDS011;4356;49.068;8.658;2022-10-16T08:50:30;1.80;;;1.27;;
8636;SDS011;4356;49.068;8.658;2022-10-16T08:52:58;5.80;;;1.17;;
8636;SDS011;4356;49.068;8.658;2022-10-16T08:55:29;1.90;;;1.27;;
8636;SDS011;4356;49.068;8.658;2022-10-16T08:57:58;0.73;;;0.73;;
8636;SDS011;4356;49.068;8.658;2022-10-16T09:00:24;2.23;;;1.10;;
8636;SDS011;4356;49.068;8.658;2022-10-16T09:03:07;2.63;;;1.47;;
8636;SDS011;4356;49.068;8.658;2022-10-16T09:06:23;2.10;;;1.70;;
8636;SDS011;4356;49.068;8.658;2022-10-16T09:17:39;1.23;;;1.23;;
8636;SDS011;4356;49.068;8.658;2022-10-16T09:23:00;1.63;;;1.00;;
8636;SDS011;4356;49.068;8.658;2022-10-16T09:25:38;1.20;;;1.20;;
8636;SDS011;4356;49.068;8.658;2022-10-16T09:28:07;1.27;;;1.13;;
8636;SDS011;4356;49.068;8.658;2022-10-16T09:30:35;1.17;;;1.17;;
8636;SDS011;4356;49.068;8.658;2022-10-16T09:33:02;1.90;;;1.07;;
8636;SDS011;4356;49.068;8.658;2022-10-16T09:35:35;1.20;;;1.10;;
8636;SDS011;4356;49.068;8.658;2022-10-16T09:38:03;1.53;;;1.40;;
8636;SDS011;4356;49.068;8.658;2022-10-16T09:40:30;4.53;;;1.13;;
8636;SDS011;4356;49.068;8.658;2022-10-16T09:43:15;3.93;;;1.53;;
8636;SDS011;4356;49.068;8.658;2022-10-16T09:46:07;1.30;;;1.30;;
8636;SDS011;4356;49.068;8.658;2022-10-16T09:48:37;3.60;;;1.30;;
8636;SDS011;4356;49.068;8.658;2022-10-16T09:51:16;2.03;;;1.17;;
8636;SDS011;4356;49.068;8.658;2022-10-16T09:53:53;4.30;;;1.30;;
8636;SDS011;4356;49.068;8.658;2022-10-16T09:56:30;2.17;;;1.60;;
8636;SDS011;4356;49.068;8.658;2022-10-16T09:59:02;1.57;;;1.43;;
8636;SDS011;4356;49.068;8.658;2022-10-16T10:01:36;2.67;;;1.17;;
8636;SDS011;4356;49.068;8.658;2022-10-16T10:04:04;1.30;;;1.30;;
8636;SDS011;4356;49.068;8.658;2022-10-16T10:06:32;3.13;;;1.23;;
8636;SDS011;4356;49.068;8.658;2022-10-16T10:11:38;1.37;;;1.23;;
8636;SDS011;4356;49.068;8.658;2022-10-16T10:14:50;3.03;;;1.27;;
8636;SDS011;4356;49.068;8.658;2022-10-16T10:17:01;1.17;;;1.17;;
8636;SDS011;4356;49.068;8.658;2022-10-16T10:19:37;1.37;;;1.23;;
8636;SDS011;4356;49.068;8.658;2022-10-16T10:30:37;1.93;;;1.07;;
8636;SDS011;4356;49.068;8.658;2022-10-16T10:39:00;0.97;;;0.97;;
8636;SDS011;4356;49.068;8.658;2022-10-16T10:41:34;2.00;;;1.40;;
8636;SDS011;4356;49.068;8.658;2022-10-16T10:47:40;1.13;;;1.00;;
8636;SDS011;4356;49.068;8.658;2022-10-16T10:50:19;1.87;;;1.10;;
8636;SDS011;4356;49.068;8.658;2022-10-16T11:00:54;1.73;;;1.13;;
8636;SDS011;4356;49.068;8.658;2022-10-16T11:06:39;4.73;;;1.40;;
8636;SDS011;4356;49.068;8.658;2022-10-16T11:12:20;4.37;;;1.17;;
8636;SDS011;4356;49.068;8.658;2022-10-16T11:14:56;1.20;;;1.07;;
8636;SDS011;4356;49.068;8.658;2022-10-16T11:22:36;1.53;;;1.40;;
8636;SDS011;4356;49.068;8.658;2022-10-16T11:30:28;3.93;;;1.43;;
8636;SDS011;4356;49.068;8.658;2022-10-16T11:38:15;2.13;;;1.47;;
8636;SDS011;4356;49.068;8.658;2022-10-16T11:40:54;2.43;;;1.37;;
8636;SDS011;4356;49.068;8.658;2022-10-16T11:43:34;5.20;;;1.10;;
8636;SDS011;4356;49.068;8.658;2022-10-16T11:46:11;2.40;;;1.60;;
8636;SDS011;4356;49.068;8.658;2022-10-16T11:48:49;3.07;;;1.10;;
8636;SDS011;4356;49.068;8.658;2022-10-16T11:56:28;2.63;;;1.47;;
8636;SDS011;4356;49.068;8.658;2022-10-16T11:59:01;1.30;;;1.20;;
8636;SDS011;4356;49.068;8.658;2022-10-16T12:01:46;1.10;;;1.10;;
8636;SDS011;4356;49.068;8.658;2022-10-16T12:07:18;2.03;;;1.40;;
8636;SDS011;4356;49.068;8.658;2022-10-16T12:09:52;2.23;;;1.37;;
8636;SDS011;4356;49.068;8.658;2022-10-16T12:12:25;2.70;;;1.27;;
8636;SDS011;4356;49.068;8.658;2022-10-16T12:15:00;1.57;;;1.43;;
8636;SDS011;4356;49.068;8.658;2022-10-16T12:17:35;1.63;;;1.33;;
8636;SDS011;4356;49.068;8.658;2022-10-16T12:20:44;2.63;;;1.47;;
8636;SDS011;4356;49.068;8.658;2022-10-16T12:23:00;4.07;;;1.80;;
8636;SDS011;4356;49.068;8.658;2022-10-16T12:25:36;1.70;;;1.10;;
8636;SDS011;4356;49.068;8.658;2022-10-16T12:28:18;1.10;;;1.10;;
8636;SDS011;4356;49.068;8.658;2022-10-16T12:31:20;3.67;;;1.60;;
8636;SDS011;4356;49.068;8.658;2022-10-16T12:33:43;2.03;;;1.30;;
8636;SDS011;4356;49.068;8.658;2022-10-16T12:36:37;1.70;;;1.20;;
8636;SDS011;4356;49.068;8.658;2022-10-16T12:39:03;2.57;;;1.50;;
8636;SDS011;4356;49.068;8.658;2022-10-16T12:41:32;1.37;;;1.27;;
8636;SDS011;4356;49.068;8.658;2022-10-16T12:44:00;1.87;;;1.30;;
8636;SDS011;4356;49.068;8.658;2022-10-16T12:51:41;2.20;;;1.40;;
8636;SDS011;4356;49.068;8.658;2022-10-16T12:57:04;4.20;;;1.33;;
8636;SDS011;4356;49.068;8.658;2022-10-16T12:59:48;4.60;;;1.80;;
8636;SDS011;4356;49.068;8.658;2022-10-16T13:02:36;1.80;;;1.47;;
8636;SDS011;4356;49.068;8.658;2022-10-16T13:08:00;1.10;;;1.10;;
8636;SDS011;4356;49.068;8.658;2022-10-16T13:14:02;1.30;;;1.17;;
8636;SDS011;4356;49.068;8.658;2022-10-16T13:22:21;2.40;;;1.70;;
8636;SDS011;4356;49.068;8.658;2022-10-16T13:24:59;2.20;;;1.30;;
8636;SDS011;4356;49.068;8.658;2022-10-16T13:27:49;1.67;;;1.47;;
8636;SDS011;4356;49.068;8.658;2022-10-16T13:30:42;4.00;;;2.07;;
8636;SDS011;4356;49.068;8.658;2022-10-16T13:33:16;1.37;;;1.27;;
8636;SDS011;4356;49.068;8.658;2022-10-16T13:35:52;2.20;;;1.40;;
8636;SDS011;4356;49.068;8.658;2022-10-16T13:38:21;1.93;;;1.40;;
8636;SDS011;4356;49.068;8.658;2022-10-16T13:43:23;2.83;;;1.33;;
8636;SDS011;4356;49.068;8.658;2022-10-16T13:45:54;3.97;;;1.60;;
8636;SDS011;4356;49.068;8.658;2022-10-16T13:48:21;2.87;;;1.50;;
8636;SDS011;4356;49.068;8.658;2022-10-16T13:50:46;4.20;;;1.40;;
8636;SDS011;4356;49.068;8.658;2022-10-16T13:53:23;4.87;;;1.37;;
8636;SDS011;4356;49.068;8.658;2022-10-16T13:55:49;2.40;;;1.23;;
8636;SDS011;4356;49.068;8.658;2022-10-16T13:58:15;3.60;;;1.53;;
8636;SDS011;4356;49.068;8.658;2022-10-16T14:00:41;3.20;;;1.37;;
8636;SDS011;4356;49.068;8.658;2022-10-16T14:03:19;4.50;;;1.50;;
8636;SDS011;4356;49.068;8.658;2022-10-16T14:05:52;2.50;;;1.70;;
8636;SDS011;4356;49.068;8.658;2022-10-16T14:08:20;4.63;;;1.37;;
8636;SDS011;4356;49.068;8.658;2022-10-16T14:10:48;2.70;;;1.17;;
8636;SDS011;4356;49.068;8.658;2022-10-16T14:13:20;1.90;;;1.53;;
8636;SDS011;4356;49.068;8.658;2022-10-16T14:16:09;1.60;;;1.50;;
8636;SDS011;4356;49.068;8.658;2022-10-16T14:18:37;1.57;;;1.47;;
8636;SDS011;4356;49.068;8.658;2022-10-16T14:21:11;5.43;;;1.70;;
8636;SDS011;4356;49.068;8.658;2022-10-16T14:23:40;3.70;;;1.60;;
8636;SDS011;4356;49.068;8.658;2022-10-16T14:28:35;1.63;;;1.53;;
8636;SDS011;4356;49.068;8.658;2022-10-16T14:31:13;1.87;;;1.77;;
8636;SDS011;4356;49.068;8.658;2022-10-16T14:33:42;4.30;;;1.90;;
8636;SDS011;4356;49.068;8.658;2022-10-16T14:38:33;2.97;;;1.67;;
8636;SDS011;4356;49.068;8.658;2022-10-16T14:40:59;3.07;;;1.70;;
8636;SDS011;4356;49.068;8.658;2022-10-16T14:43:29;4.53;;;1.47;;
8636;SDS011;4356;49.068;8.658;2022-10-16T14:46:18;3.67;;;1.33;;
8636;SDS011;4356;49.068;8.658;2022-10-16T14:48:47;4.60;;;1.40;;
8636;SDS011;4356;49.068;8.658;2022-10-16T14:51:19;5.70;;;1.20;;
8636;SDS011;4356;49.068;8.658;2022-10-16T14:53:45;1.63;;;1.27;;
8636;SDS011;4356;49.068;8.658;2022-10-16T14:56:19;2.07;;;1.43;;
8636;SDS011;4356;49.068;8.658;2022-10-16T14:58:48;1.93;;;1.60;;
8636;SDS011;4356;49.068;8.658;2022-10-16T15:01:15;1.70;;;1.27;;
8636;SDS011;4356;49.068;8.658;2022-10-16T15:03:41;2.10;;;1.70;;
8636;SDS011;4356;49.068;8.658;2022-10-16T15:06:13;1.83;;;1.73;;
8636;SDS011;4356;49.068;8.658;2022-10-16T15:08:40;2.23;;;1.83;;
8636;SDS011;4356;49.068;8.658;2022-10-16T15:11:12;2.50;;;1.90;;
8636;SDS011;4356;49.068;8.658;2022-10-16T15:13:40;5.40;;;1.70;;
8636;SDS011;4356;49.068;8.658;2022-10-16T15:16:08;3.07;;;1.70;;
8636;SDS011;4356;49.068;8.658;2022-10-16T15:18:36;2.83;;;1.60;;
8636;SDS011;4356;49.068;8.658;2022-10-16T15:21:02;4.20;;;1.60;;
8636;SDS011;4356;49.068;8.658;2022-10-16T15:23:28;6.47;;;1.93;;
8636;SDS011;4356;49.068;8.658;2022-10-16T15:25:54;1.97;;;1.73;;
8636;SDS011;4356;49.068;8.658;2022-10-16T15:28:21;2.90;;;2.50;;
8636;SDS011;4356;49.068;8.658;2022-10-16T15:30:54;2.50;;;1.90;;
8636;SDS011;4356;49.068;8.658;2022-10-16T15:33:22;2.57;;;1.73;;
8636;SDS011;4356;49.068;8.658;2022-10-16T15:35:57;4.80;;;1.90;;
8636;SDS011;4356;49.068;8.658;2022-10-16T15:38:23;1.80;;;1.70;;
8636;SDS011;4356;49.068;8.658;2022-10-16T15:40:51;4.63;;;2.03;;
8636;SDS011;4356;49.068;8.658;2022-10-16T15:43:16;6.63;;;1.70;;
8636;SDS011;4356;49.068;8.658;2022-10-16T15:45:43;4.10;;;1.97;;
8636;SDS011;4356;49.068;8.658;2022-10-16T15:48:12;2.23;;;1.57;;
8636;SDS011;4356;49.068;8.658;2022-10-16T15:50:38;2.40;;;1.67;;
8636;SDS011;4356;49.068;8.658;2022-10-16T15:53:05;3.60;;;1.47;;
8636;SDS011;4356;49.068;8.658;2022-10-16T15:55:30;2.40;;;1.97;;
8636;SDS011;4356;49.068;8.658;2022-10-16T15:57:56;6.07;;;2.53;;
8636;SDS011;4356;49.068;8.658;2022-10-16T16:00:21;6.40;;;2.17;;
8636;SDS011;4356;49.068;8.658;2022-10-16T16:02:51;3.43;;;1.97;;
8636;SDS011;4356;49.068;8.658;2022-10-16T16:05:18;1.93;;;1.30;;
8636;SDS011;4356;49.068;8.658;2022-10-16T16:07:45;2.43;;;2.27;;
8636;SDS011;4356;49.068;8.658;2022-10-16T16:10:11;6.97;;;1.93;;
8636;SDS011;4356;49.068;8.658;2022-10-16T16:12:37;2.60;;;1.50;;
8636;SDS011;4356;49.068;8.658;2022-10-16T16:15:04;3.63;;;1.60;;
8636;SDS011;4356;49.068;8.658;2022-10-16T16:17:31;5.30;;;2.10;;
8636;SDS011;4356;49.068;8.658;2022-10-16T16:19:57;1.70;;;1.47;;
8636;SDS011;4356;49.068;8.658;2022-10-16T16:22:23;1.70;;;1.47;;
8636;SDS011;4356;49.068;8.658;2022-10-16T16:24:49;4.57;;;1.97;;
8636;SDS011;4356;49.068;8.658;2022-10-16T16:27:15;3.27;;;1.40;;
8636;SDS011;4356;49.068;8.658;2022-10-16T16:29:40;2.90;;;1.50;;
8636;SDS011;4356;49.068;8.658;2022-10-16T16:32:06;2.07;;;1.83;;
8636;SDS011;4356;49.068;8.658;2022-10-16T16:34:32;3.60;;;1.77;;
8636;SDS011;4356;49.068;8.658;2022-10-16T16:36:57;1.70;;;1.60;;
8636;SDS011;4356;49.068;8.658;2022-10-16T16:39:23;8.20;;;2.20;;
8636;SDS011;4356;49.068;8.658;2022-10-16T16:41:49;1.70;;;1.60;;
8636;SDS011;4356;49.068;8.658;2022-10-16T16:44:15;2.90;;;1.93;;
8636;SDS011;4356;49.068;8.658;2022-10-16T16:46:42;4.87;;;1.50;;
8636;SDS011;4356;49.068;8.658;2022-10-16T16:49:09;1.90;;;1.50;;
8636;SDS011;4356;49.068;8.658;2022-10-16T16:51:36;3.20;;;2.17;;
8636;SDS011;4356;49.068;8.658;2022-10-16T16:54:03;4.73;;;1.50;;
8636;SDS011;4356;49.068;8.658;2022-10-16T16:56:29;4.90;;;1.93;;
8636;SDS011;4356;49.068;8.658;2022-10-16T16:58:55;1.97;;;1.83;;
8636;SDS011;4356;49.068;8.658;2022-10-16T17:01:22;3.07;;;2.27;;
8636;SDS011;4356;49.068;8.658;2022-10-16T17:03:50;11.40;;;2.73;;
8636;SDS011;4356;49.068;8.658;2022-10-16T17:06:19;3.77;;;1.83;;
8636;SDS011;4356;49.068;8.658;2022-10-16T17:08:45;2.27;;;2.00;;
8636;SDS011;4356;49.068;8.658;2022-10-16T17:11:15;2.23;;;2.13;;
8636;SDS011;4356;49.068;8.658;2022-10-16T17:13:43;8.10;;;2.10;;
8636;SDS011;4356;49.068;8.658;2022-10-16T17:16:08;4.10;;;2.27;;
8636;SDS011;4356;49.068;8.658;2022-10-16T17:18:35;2.37;;;1.93;;
8636;SDS011;4356;49.068;8.658;2022-10-16T17:21:01;5.97;;;2.23;;
8636;SDS011;4356;49.068;8.658;2022-10-16T17:23:29;6.17;;;3.00;;
8636;SDS011;4356;49.068;8.658;2022-10-16T17:25:55;6.43;;;3.13;;
8636;SDS011;4356;49.068;8.658;2022-10-16T17:28:21;4.40;;;3.00;;
8636;SDS011;4356;49.068;8.658;2022-10-16T17:30:46;2.77;;;2.57;;